Terminal Aerodrome Forecast
Issued by NWS Lubbock, TX

Home | Current Version | Previous Version | Text Only | Print | Product List | Glossary On
Versions: 1 2 3 4 5 6 7 8 9 10 11 12 13 14 15 16 17 18
000
FTUS44 KLUB 290500
TAFLBB
TAF
KLBB 290520Z 2906/3006 09004KT P6SM FEW250
     FM291500 VRB05KT P6SM SCT250 PROB30 2919/2924 -TSRA SCT070CB=

USA.gov is the U.S. government's official web portal to all federal, state and local government web resources and services.